Time;durP1;ratioP1;P1;durP2;ratioP2;P2;SDS_P1;SDS_P2;PMS_P1;PMS_P2;Temp;Humidity;BMP_temperature;BMP_pressure;BME280_temperature;BME280_humidity;BME280_pressure;Samples;Min_cycle;Max_cycle;Signal;HPM_P1;HPM_P2
2024/04/01 00:02:25;;;;;;;2.47;0.83;;;10.70;99.90;;;;;;5072545;28;20033;-48
2024/04/01 00:04:50;;;;;;;3.30;1.10;;;10.60;99.90;;;;;;5072578;28;20390;-49
2024/04/01 00:07:16;;;;;;;2.23;0.80;;;10.70;99.90;;;;;;5072337;28;20021;-49
2024/04/01 00:09:42;;;;;;;2.97;1.10;;;10.70;99.90;;;;;;5054451;28;20496;-49
2024/04/01 00:12:07;;;;;;;1.73;0.70;;;10.70;99.90;;;;;;5072399;28;20040;-50
2024/04/01 00:14:33;;;;;;;2.63;1.10;;;10.70;99.90;;;;;;5072354;28;20066;-49
2024/04/01 00:16:59;;;;;;;2.43;1.13;;;10.70;99.90;;;;;;5072208;28;20028;-53
2024/04/01 00:19:24;;;;;;;5.00;1.23;;;10.60;99.90;;;;;;5072364;28;20115;-54
2024/04/01 00:21:50;;;;;;;5.53;1.00;;;10.60;99.90;;;;;;5072188;28;20024;-50
2024/04/01 00:24:16;;;;;;;2.07;1.30;;;10.60;99.90;;;;;;5072327;28;20434;-52
2024/04/01 00:26:41;;;;;;;2.27;0.70;;;10.60;99.90;;;;;;5072357;28;20028;-50
2024/04/01 00:29:07;;;;;;;3.87;0.97;;;10.60;99.90;;;;;;5054327;28;20098;-52
2024/04/01 00:31:32;;;;;;;2.87;1.20;;;10.60;99.90;;;;;;5071964;28;20032;-51
2024/04/01 00:33:58;;;;;;;1.57;0.70;;;10.70;99.90;;;;;;5072138;28;20025;-50
2024/04/01 00:36:25;;;;;;;3.43;1.30;;;10.70;99.90;;;;;;5071915;28;20039;-50
2024/04/01 00:38:50;;;;;;;3.13;0.87;;;10.60;99.90;;;;;;5072116;28;20036;-51
2024/04/01 00:41:19;;;;;;;4.60;1.17;;;10.50;99.90;;;;;;5072418;28;20032;-51
2024/04/01 00:43:45;;;;;;;2.75;0.70;;;10.50;99.90;;;;;;5071890;28;20123;-52
2024/04/01 00:46:11;;;;;;;1.43;0.60;;;10.40;99.90;;;;;;5071777;28;20112;-53
2024/04/01 00:48:37;;;;;;;2.10;0.80;;;10.40;99.90;;;;;;5071906;28;20443;-51
2024/04/01 00:51:04;;;;;;;2.37;0.73;;;10.40;99.90;;;;;;5071854;28;20115;-53
2024/04/01 00:53:29;;;;;;;2.63;0.80;;;10.50;99.90;;;;;;5053900;28;20028;-53
2024/04/01 00:55:55;;;;;;;1.43;0.70;;;10.50;99.90;;;;;;5071444;28;20035;-52
2024/04/01 00:58:21;;;;;;;1.83;0.73;;;10.60;99.90;;;;;;5071796;28;20043;-54
2024/04/01 01:00:48;;;;;;;2.03;0.90;;;10.50;99.90;;;;;;5071777;28;20047;-53
2024/04/01 01:03:15;;;;;;;1.60;0.60;;;10.60;99.90;;;;;;5071704;28;20461;-54
2024/04/01 01:05:40;;;;;;;1.80;0.67;;;10.50;99.90;;;;;;5071453;28;20115;-54
2024/04/01 01:08:06;;;;;;;1.90;0.60;;;10.60;99.90;;;;;;5071750;28;20112;-53
2024/04/01 01:10:33;;;;;;;5.97;2.00;;;10.70;99.90;;;;;;5072114;28;20044;-53
2024/04/01 01:12:59;;;;;;;3.43;1.00;;;10.70;99.90;;;;;;5071583;28;20097;-52
2024/04/01 01:15:28;;;;;;;2.83;0.70;;;10.60;99.90;;;;;;5053709;28;20029;-52
2024/04/01 01:17:54;;;;;;;1.60;0.63;;;10.60;99.90;;;;;;5071622;28;20028;-53
2024/04/01 01:20:20;;;;;;;1.67;0.90;;;10.60;99.90;;;;;;5071520;28;20033;-50
2024/04/01 01:22:46;;;;;;;3.57;0.73;;;10.70;99.90;;;;;;5071476;28;20029;-51
2024/04/01 01:25:12;;;;;;;2.23;0.70;;;10.70;99.90;;;;;;5071421;28;20393;-52
2024/04/01 01:27:39;;;;;;;1.40;0.50;;;10.70;99.90;;;;;;5071450;28;20036;-51
2024/04/01 01:30:15;;;;;;;3.37;0.70;;;10.70;99.90;;;;;;5071350;28;20501;-50
2024/04/01 01:32:47;;;;;;;2.43;0.70;;;10.60;99.90;;;;;;5071559;28;20454;-53
2024/04/01 01:35:20;;;;;;;1.67;0.70;;;10.70;99.90;;;;;;5071344;28;20041;-52
2024/04/01 01:37:46;;;;;;;4.17;1.20;;;10.70;99.90;;;;;;5071418;28;20366;-52
2024/04/01 01:40:12;;;;;;;2.17;0.80;;;10.70;99.90;;;;;;5071398;28;20048;-54
2024/04/01 01:42:38;;;;;;;2.23;0.80;;;10.70;99.90;;;;;;5072663;28;20517;-49
2024/04/01 01:45:04;;;;;;;2.63;0.60;;;10.70;99.90;;;;;;5075550;28;20029;-49
2024/04/01 01:47:34;;;;;;;2.60;0.70;;;10.70;99.90;;;;;;5075194;28;20124;-53
2024/04/01 01:50:01;;;;;;;1.87;0.60;;;10.80;99.90;;;;;;5074993;28;20111;-50
2024/04/01 01:52:27;;;;;;;2.67;0.80;;;10.80;99.90;;;;;;5075104;28;20028;-54
2024/04/01 01:54:53;;;;;;;1.60;0.50;;;10.90;99.90;;;;;;5075068;28;20621;-53
2024/04/01 01:57:18;;;;;;;2.10;0.50;;;10.90;99.90;;;;;;5074675;28;20115;-53
2024/04/01 01:59:44;;;;;;;3.10;0.80;;;10.90;99.90;;;;;;5074853;28;20062;-52
2024/04/01 02:02:11;;;;;;;2.13;0.83;;;10.90;99.90;;;;;;5074781;28;20033;-48
2024/04/01 02:04:36;;;;;;;2.70;0.60;;;10.90;99.90;;;;;;5074810;28;20111;-49
2024/04/01 02:07:04;;;;;;;2.37;0.70;;;10.80;99.90;;;;;;5074595;28;20434;-47
2024/04/01 02:09:30;;;;;;;2.90;0.80;;;10.80;99.90;;;;;;5074769;28;20389;-49
2024/04/01 02:11:56;;;;;;;3.63;0.87;;;10.70;99.90;;;;;;5074617;28;20032;-50
2024/04/01 02:14:21;;;;;;;1.77;0.77;;;10.70;99.90;;;;;;5074774;28;20032;-52
2024/04/01 02:16:47;;;;;;;1.83;0.80;;;10.70;99.90;;;;;;5074430;28;20024;-53
2024/04/01 02:19:16;;;;;;;3.20;1.30;;;10.70;99.90;;;;;;5074639;28;20031;-53
2024/04/01 02:21:44;;;;;;;2.05;0.80;;;10.70;99.90;;;;;;5074569;28;20465;-53
2024/04/01 02:24:11;;;;;;;2.17;0.68;;;10.70;99.90;;;;;;5074510;28;20128;-53
2024/04/01 02:26:37;;;;;;;1.07;0.60;;;10.70;99.90;;;;;;5074266;28;20035;-50
2024/04/01 02:29:04;;;;;;;2.23;0.70;;;10.60;99.90;;;;;;5074445;28;20041;-50
2024/04/01 02:31:29;;;;;;;2.10;0.73;;;10.60;99.90;;;;;;5074488;28;20028;-52
2024/04/01 02:33:55;;;;;;;1.97;0.70;;;10.50;99.90;;;;;;5074284;28;20385;-52
2024/04/01 02:36:21;;;;;;;0.97;0.50;;;10.50;99.90;;;;;;5074163;28;20040;-51
2024/04/01 02:38:49;;;;;;;3.47;0.80;;;10.50;99.90;;;;;;5074282;28;20032;-51
2024/04/01 02:41:14;;;;;;;4.43;0.80;;;10.50;99.90;;;;;;5074142;28;20032;-53
2024/04/01 02:43:42;;;;;;;3.47;0.87;;;10.50;99.90;;;;;;5074214;28;20052;-53
2024/04/01 02:46:08;;;;;;;2.07;0.60;;;10.50;99.90;;;;;;5073950;28;20028;-51
2024/04/01 02:48:33;;;;;;;1.83;0.60;;;10.50;99.90;;;;;;5074064;28;20398;-53
2024/04/01 02:50:59;;;;;;;1.97;0.50;;;10.50;99.90;;;;;;5073999;28;20073;-52
2024/04/01 02:53:24;;;;;;;1.47;0.70;;;10.50;99.90;;;;;;5073882;28;20033;-49
2024/04/01 02:55:50;;;;;;;3.00;0.77;;;10.50;99.90;;;;;;5073603;28;20163;-48
2024/04/01 02:58:15;;;;;;;1.57;0.60;;;10.50;99.90;;;;;;5073916;28;20078;-52
2024/04/01 03:00:45;;;;;;;3.13;0.77;;;10.50;99.90;;;;;;5073860;28;20044;-52
2024/04/01 03:03:12;;;;;;;2.70;0.80;;;10.50;99.90;;;;;;5073777;28;20125;-52
2024/04/01 03:05:38;;;;;;;15.30;2.27;;;10.50;99.90;;;;;;5073605;28;20035;-48
2024/04/01 03:08:05;;;;;;;2.00;0.63;;;10.40;99.90;;;;;;5073976;28;20039;-49
2024/04/01 03:10:30;;;;;;;2.13;1.00;;;10.30;99.90;;;;;;5073584;28;20119;-53
2024/04/01 03:12:56;;;;;;;2.93;0.93;;;10.20;99.90;;;;;;5073711;28;20059;-52
2024/04/01 03:15:21;;;;;;;2.63;0.90;;;10.20;99.90;;;;;;5073381;28;20028;-49
2024/04/01 03:17:47;;;;;;;3.60;0.83;;;10.20;99.90;;;;;;5073712;28;20572;-52
2024/04/01 03:20:13;;;;;;;2.60;0.87;;;10.20;99.90;;;;;;5073409;28;20028;-52
2024/04/01 03:22:40;;;;;;;2.70;0.80;;;10.10;99.90;;;;;;5073346;28;20051;-52
2024/04/01 03:25:06;;;;;;;2.10;0.67;;;10.10;99.90;;;;;;5073294;28;20139;-49
2024/04/01 03:27:32;;;;;;;3.07;0.73;;;10.10;99.90;;;;;;5073406;28;20028;-53
2024/04/01 03:29:58;;;;;;;3.00;0.97;;;10.10;99.90;;;;;;5055100;28;20035;-51
2024/04/01 03:32:23;;;;;;;2.40;0.90;;;10.10;99.90;;;;;;5073717;28;20024;-50
2024/04/01 03:34:49;;;;;;;1.87;0.83;;;10.00;99.90;;;;;;5073158;28;20043;-51
2024/04/01 03:37:15;;;;;;;1.70;0.87;;;10.00;99.90;;;;;;5072963;28;20028;-52
2024/04/01 03:39:45;;;;;;;2.70;0.90;;;10.00;99.90;;;;;;5072948;28;20081;-52
2024/04/01 03:42:12;;;;;;;2.50;1.10;;;9.90;99.90;;;;;;5073029;28;20032;-49
2024/04/01 03:44:37;;;;;;;2.07;0.80;;;9.90;99.90;;;;;;5072967;28;20073;-53
2024/04/01 03:47:03;;;;;;;2.10;0.80;;;9.90;99.90;;;;;;5072668;28;20111;-51
2024/04/01 03:49:29;;;;;;;3.10;0.97;;;9.90;99.90;;;;;;5072954;28;20086;-52
2024/04/01 03:51:55;;;;;;;2.23;0.90;;;9.90;99.90;;;;;;5054933;28;20028;-52
2024/04/01 03:54:21;;;;;;;2.47;0.83;;;9.90;99.90;;;;;;5072816;28;20024;-53
2024/04/01 03:56:48;;;;;;;2.07;0.80;;;9.90;99.90;;;;;;5072462;28;20485;-53
2024/04/01 03:59:15;;;;;;;1.03;0.60;;;9.90;99.90;;;;;;5072625;28;20553;-53
2024/04/01 04:01:44;;;;;;;2.73;0.70;;;9.80;99.90;;;;;;5054619;28;20032;-52
2024/04/01 04:04:13;;;;;;;;;;;9.80;99.90;;;;;;5073237;28;20033;-53
2024/04/01 04:06:39;;;;;;;3.33;0.90;;;9.80;99.90;;;;;;5071818;28;19912;-51
2024/04/01 04:09:15;;;;;;;3.40;0.73;;;9.80;99.90;;;;;;5072826;28;20032;-54
2024/04/01 04:11:50;;;;;;;3.17;0.97;;;9.80;99.90;;;;;;5054566;28;20100;-52
2024/04/01 04:14:19;;;;;;;1.63;0.80;;;9.80;99.90;;;;;;5072491;28;20040;-52
2024/04/01 04:16:45;;;;;;;;;;;9.80;99.90;;;;;;5055018;28;20024;-52
2024/04/01 04:19:11;;;;;;;2.63;0.90;;;9.80;99.90;;;;;;5072289;28;20420;-52
2024/04/01 04:21:36;;;;;;;2.93;0.80;;;9.80;99.90;;;;;;5072280;28;20028;-50
2024/04/01 04:24:02;;;;;;;2.83;1.43;;;9.80;99.90;;;;;;5072658;28;20051;-48
2024/04/01 04:26:28;;;;;;;3.23;0.97;;;9.80;99.90;;;;;;5072152;28;20059;-52
2024/04/01 04:28:54;;;;;;;2.67;1.00;;;9.80;99.90;;;;;;5072182;28;20469;-50
2024/04/01 04:31:19;;;;;;;1.83;0.80;;;9.80;99.90;;;;;;5072122;28;20112;-50
2024/04/01 04:33:46;;;;;;;3.90;1.10;;;9.80;99.90;;;;;;5072248;28;20041;-48
2024/04/01 04:36:12;;;;;;;3.43;1.10;;;9.80;99.90;;;;;;5071942;28;20119;-48
2024/04/01 04:38:38;;;;;;;2.77;0.90;;;9.80;99.90;;;;;;5072007;28;20111;-49
2024/04/01 04:41:04;;;;;;;3.50;1.10;;;9.70;99.90;;;;;;5071924;28;20066;-50
2024/04/01 04:43:30;;;;;;;2.30;0.90;;;9.70;99.90;;;;;;5072157;28;20078;-48
2024/04/01 04:45:56;;;;;;;3.93;1.50;;;9.70;99.90;;;;;;5071730;28;20420;-52
2024/04/01 04:48:22;;;;;;;2.67;1.00;;;9.70;99.90;;;;;;5072011;28;20021;-49
2024/04/01 04:50:48;;;;;;;2.90;1.00;;;9.70;99.90;;;;;;5071821;28;20484;-51
2024/04/01 04:53:13;;;;;;;2.70;1.20;;;9.70;99.90;;;;;;5071881;28;20504;-54
2024/04/01 04:55:42;;;;;;;2.33;0.80;;;9.70;99.90;;;;;;5071666;28;20021;-54
2024/04/01 04:58:09;;;;;;;1.50;0.60;;;9.70;99.90;;;;;;5072000;28;20166;-52
2024/04/01 05:00:35;;;;;;;2.50;0.60;;;9.70;99.90;;;;;;5072409;28;20496;-50
2024/04/01 05:03:01;;;;;;;3.03;0.80;;;9.70;99.90;;;;;;5072120;28;20074;-50
2024/04/01 05:05:26;;;;;;;1.93;0.60;;;9.60;99.90;;;;;;5071961;28;20025;-50
2024/04/01 05:07:52;;;;;;;0.90;0.50;;;9.60;99.90;;;;;;5072217;28;20035;-50
2024/04/01 05:10:18;;;;;;;1.93;0.60;;;9.60;99.90;;;;;;5071736;28;20096;-50
2024/04/01 05:12:43;;;;;;;4.27;0.80;;;9.60;99.90;;;;;;5071824;28;20477;-54
2024/04/01 05:15:09;;;;;;;2.27;0.50;;;9.60;99.90;;;;;;5053567;28;20032;-51
2024/04/01 05:17:38;;;;;;;2.83;0.80;;;9.60;99.90;;;;;;5073062;28;20041;-53
2024/04/01 05:20:04;;;;;;;2.20;0.60;;;9.50;99.90;;;;;;5075807;28;20036;-49
2024/04/01 05:22:30;;;;;;;4.80;0.70;;;9.50;99.90;;;;;;5075545;28;20036;-53
2024/04/01 05:24:56;;;;;;;2.37;0.70;;;9.50;99.90;;;;;;5075676;28;20043;-52
2024/04/01 05:27:22;;;;;;;2.33;0.60;;;9.50;99.90;;;;;;5075424;28;20032;-51
2024/04/01 05:30:03;;;;;;;1.90;0.73;;;9.50;99.90;;;;;;5075452;28;20107;-48
2024/04/01 05:32:33;;;;;;;5.17;0.90;;;9.50;99.90;;;;;;5075705;28;20044;-49
2024/04/01 05:34:59;;;;;;;3.27;0.83;;;9.60;99.90;;;;;;5075461;28;20032;-53
2024/04/01 05:37:25;;;;;;;1.83;0.70;;;9.60;99.90;;;;;;5075236;28;20029;-50
2024/04/01 05:39:52;;;;;;;3.93;0.83;;;9.60;99.90;;;;;;5075432;28;20613;-48
2024/04/01 05:42:21;;;;;;;4.80;0.90;;;9.60;99.90;;;;;;5075228;28;20056;-53
2024/04/01 05:44:47;;;;;;;3.35;0.98;;;9.60;99.90;;;;;;5075359;28;20063;-53
2024/04/01 05:47:14;;;;;;;3.77;1.30;;;9.60;99.90;;;;;;5075009;28;20132;-48
2024/04/01 05:49:40;;;;;;;2.10;1.10;;;9.60;99.90;;;;;;5075107;28;20123;-53
2024/04/01 05:52:06;;;;;;;2.77;1.00;;;9.50;99.90;;;;;;5040503;28;20469;-49
2024/04/01 05:54:32;;;;;;;2.77;0.97;;;9.50;99.90;;;;;;5075343;28;20048;-49
2024/04/01 05:56:58;;;;;;;4.43;1.50;;;9.50;99.90;;;;;;5074704;28;20032;-48
2024/04/01 05:59:25;;;;;;;4.60;1.40;;;9.60;99.90;;;;;;5074990;28;20020;-48
2024/04/01 06:01:52;;;;;;;3.00;1.20;;;9.50;99.90;;;;;;5074940;28;20028;-51
2024/04/01 06:04:19;;;;;;;3.77;0.90;;;9.60;99.90;;;;;;5074762;28;20480;-48
2024/04/01 06:06:44;;;;;;;2.70;0.80;;;9.60;99.90;;;;;;5074546;28;20036;-48
2024/04/01 06:09:10;;;;;;;2.27;0.80;;;9.60;99.90;;;;;;5074766;28;20024;-48
2024/04/01 06:11:36;;;;;;;3.27;1.10;;;9.60;99.90;;;;;;5056845;28;20043;-53
2024/04/01 06:14:01;;;;;;;2.90;1.53;;;9.60;99.90;;;;;;5074797;28;20033;-49
2024/04/01 06:16:27;;;;;;;3.67;1.20;;;9.50;99.90;;;;;;5074484;28;20035;-51
2024/04/01 06:18:53;;;;;;;4.47;0.90;;;9.50;99.90;;;;;;5074499;28;20036;-50
2024/04/01 06:21:18;;;;;;;2.60;0.90;;;9.50;99.90;;;;;;5074444;28;20200;-48
2024/04/01 06:23:46;;;;;;;2.73;0.90;;;9.50;99.90;;;;;;5074599;28;20029;-52
2024/04/01 06:26:12;;;;;;;2.63;0.87;;;9.50;99.90;;;;;;5074234;28;20028;-53
2024/04/01 06:28:37;;;;;;;1.53;0.70;;;9.50;99.90;;;;;;5073895;28;20036;-51
2024/04/01 06:31:03;;;;;;;2.17;0.90;;;9.50;99.90;;;;;;5074194;28;20036;-48
2024/04/01 06:33:29;;;;;;;3.43;0.90;;;9.50;99.90;;;;;;5074259;28;20116;-52
2024/04/01 06:36:01;;;;;;;1.17;0.80;;;9.50;99.90;;;;;;5074041;28;20036;-49
2024/04/01 06:38:27;;;;;;;5.47;1.07;;;9.50;99.90;;;;;;5074238;28;20029;-50
2024/04/01 06:40:52;;;;;;;2.17;0.80;;;9.50;99.90;;;;;;5074159;28;20032;-53
2024/04/01 06:43:18;;;;;;;2.47;1.10;;;9.60;99.90;;;;;;5074083;28;20028;-51
2024/04/01 06:45:57;;;;;;;2.40;0.90;;;9.60;99.90;;;;;;5074027;28;20035;-51
2024/04/01 06:48:23;;;;;;;1.88;0.90;;;9.60;99.90;;;;;;5074094;28;20037;-52
2024/04/01 06:50:49;;;;;;;1.87;0.90;;;9.60;99.90;;;;;;5073875;28;20461;-52
2024/04/01 06:53:17;;;;;;;3.47;1.13;;;9.70;99.90;;;;;;5073903;28;20032;-53
2024/04/01 06:55:43;;;;;;;3.30;1.10;;;9.70;99.90;;;;;;5073637;28;20028;-52
2024/04/01 06:58:09;;;;;;;2.80;1.37;;;9.70;99.90;;;;;;5073886;28;20115;-52
2024/04/01 07:00:35;;;;;;;9.63;3.80;;;9.70;99.90;;;;;;5073645;28;20040;-52
2024/04/01 07:03:01;;;;;;;4.27;2.00;;;9.70;99.90;;;;;;5055703;28;20040;-54
2024/04/01 07:05:27;;;;;;;5.57;1.53;;;9.70;99.90;;;;;;5073489;28;20107;-52
2024/04/01 07:07:52;;;;;;;2.10;1.30;;;9.70;99.90;;;;;;5073686;28;20025;-54
2024/04/01 07:10:18;;;;;;;4.57;1.40;;;9.70;99.90;;;;;;5073539;28;20028;-54
2024/04/01 07:12:43;;;;;;;2.67;1.23;;;9.70;99.90;;;;;;5055576;28;20028;-53
2024/04/01 07:15:09;;;;;;;3.60;1.40;;;9.70;99.90;;;;;;5073281;28;20067;-50
2024/04/01 07:17:38;;;;;;;3.67;1.50;;;9.70;99.90;;;;;;5073501;28;20396;-53
2024/04/01 07:20:05;;;;;;;4.80;1.40;;;9.60;99.90;;;;;;5073315;28;20444;-53
2024/04/01 07:22:31;;;;;;;4.77;1.57;;;9.60;99.90;;;;;;5073452;28;20040;-53
2024/04/01 07:24:57;;;;;;;3.57;1.60;;;9.60;99.90;;;;;;5073351;28;20436;-54
2024/04/01 07:27:23;;;;;;;2.73;1.50;;;9.60;99.90;;;;;;5073136;28;20040;-53
2024/04/01 07:29:49;;;;;;;5.63;1.70;;;9.60;99.90;;;;;;5055386;28;20039;-51
2024/04/01 07:32:15;;;;;;;4.60;1.50;;;9.60;99.90;;;;;;5073262;28;20085;-53
2024/04/01 07:34:40;;;;;;;5.20;2.03;;;9.70;99.90;;;;;;5073139;28;20025;-52
2024/04/01 07:37:06;;;;;;;6.73;2.53;;;9.70;99.90;;;;;;5072980;28;20051;-53
2024/04/01 07:39:32;;;;;;;4.83;1.80;;;9.70;99.90;;;;;;5072445;28;20024;-54
2024/04/01 07:41:57;;;;;;;4.47;1.97;;;9.70;99.90;;;;;;5072588;28;20056;-54
2024/04/01 07:44:23;;;;;;;4.20;2.03;;;9.70;99.90;;;;;;5073225;28;20040;-52
2024/04/01 07:46:48;;;;;;;5.17;2.07;;;9.70;99.90;;;;;;5055062;28;20482;-52
2024/04/01 07:49:14;;;;;;;7.70;2.60;;;9.70;99.90;;;;;;5073003;28;20020;-53
2024/04/01 07:51:41;;;;;;;6.03;2.70;;;9.80;99.90;;;;;;5072946;28;20124;-53
2024/04/01 07:54:06;;;;;;;5.33;2.00;;;9.80;99.90;;;;;;5073189;28;20027;-49
2024/04/01 07:56:32;;;;;;;6.03;2.00;;;9.80;99.90;;;;;;5072404;28;20493;-50
2024/04/01 07:58:57;;;;;;;4.60;1.80;;;9.80;99.90;;;;;;5072665;28;20032;-49
2024/04/01 08:01:23;;;;;;;4.67;2.10;;;9.80;99.90;;;;;;5072547;28;20166;-47
2024/04/01 08:03:49;;;;;;;5.20;2.17;;;9.80;99.90;;;;;;5072609;28;20028;-50
2024/04/01 08:06:15;;;;;;;4.70;2.20;;;9.80;99.90;;;;;;5072284;28;20020;-48
2024/04/01 08:08:41;;;;;;;5.43;2.00;;;9.70;99.90;;;;;;5072454;28;20078;-53
2024/04/01 08:11:06;;;;;;;3.30;1.80;;;9.70;99.90;;;;;;5072399;28;20033;-49
2024/04/01 08:13:32;;;;;;;5.00;2.70;;;9.70;99.90;;;;;;5072451;28;20037;-48
2024/04/01 08:16:03;;;;;;;5.27;2.47;;;9.80;99.90;;;;;;5054599;28;20056;-48
2024/04/01 08:18:29;;;;;;;5.90;2.87;;;9.80;99.90;;;;;;5072282;28;20033;-49
2024/04/01 08:20:59;;;;;;;5.20;2.60;;;9.80;99.90;;;;;;5072246;28;20492;-49
2024/04/01 08:23:25;;;;;;;8.10;3.40;;;9.80;99.90;;;;;;5072242;28;20170;-49
2024/04/01 08:25:51;;;;;;;6.17;2.60;;;9.90;99.90;;;;;;5071958;28;20032;-48
2024/04/01 08:28:17;;;;;;;5.90;2.63;;;9.90;99.90;;;;;;5054322;28;20032;-49
2024/04/01 08:30:43;;;;;;;5.93;3.03;;;9.90;99.90;;;;;;5072111;28;20036;-52
2024/04/01 08:33:08;;;;;;;6.17;4.07;;;9.90;99.90;;;;;;5072071;28;20036;-49
2024/04/01 08:35:34;;;;;;;6.33;3.17;;;9.90;99.90;;;;;;5071929;28;20028;-51
2024/04/01 08:38:00;;;;;;;4.87;2.90;;;9.90;99.90;;;;;;5072028;28;20029;-48
2024/04/01 08:40:28;;;;;;;5.13;3.00;;;9.90;99.90;;;;;;5072415;28;20408;-53
2024/04/01 08:43:00;;;;;;;4.87;3.10;;;9.90;99.90;;;;;;5071918;28;20119;-53
2024/04/01 08:45:27;;;;;;;5.20;3.13;;;10.00;99.90;;;;;;5071731;28;20020;-52
2024/04/01 08:47:59;;;;;;;5.73;3.37;;;9.90;99.90;;;;;;5071928;28;20028;-52
2024/04/01 08:50:35;;;;;;;4.63;3.03;;;9.90;99.90;;;;;;5053915;28;20036;-50
2024/04/01 08:53:21;;;;;;;5.13;3.10;;;9.90;99.90;;;;;;5071799;28;20037;-49
2024/04/01 08:55:47;;;;;;;5.73;3.00;;;9.90;99.90;;;;;;5071648;28;20078;-53
2024/04/01 08:58:14;;;;;;;5.47;3.20;;;9.90;99.90;;;;;;5071893;28;20446;-52
2024/04/01 09:00:40;;;;;;;5.90;3.47;;;10.00;99.90;;;;;;5071710;28;20036;-51
2024/04/01 09:03:05;;;;;;;5.67;3.23;;;10.00;99.90;;;;;;5071699;28;20539;-48
2024/04/01 09:05:32;;;;;;;6.47;3.70;;;10.00;99.90;;;;;;5071606;28;20032;-51
2024/04/01 09:07:59;;;;;;;7.00;3.13;;;9.90;99.90;;;;;;5071728;28;20063;-53
2024/04/01 09:10:26;;;;;;;5.40;3.17;;;10.00;99.90;;;;;;5071674;28;20437;-52
2024/04/01 09:12:58;;;;;;;6.23;3.80;;;9.90;99.90;;;;;;5071712;28;20402;-53
2024/04/01 09:15:24;;;;;;;6.73;3.60;;;9.90;99.90;;;;;;5071616;28;20035;-50
2024/04/01 09:17:50;;;;;;;6.50;3.70;;;10.00;99.90;;;;;;5071717;28;20067;-48
2024/04/01 09:20:15;;;;;;;5.77;3.90;;;9.90;99.90;;;;;;5071629;28;20068;-50
2024/04/01 09:22:41;;;;;;;7.77;4.40;;;10.00;99.90;;;;;;5071636;28;20186;-48
2024/04/01 09:25:06;;;;;;;11.27;6.10;;;10.10;99.90;;;;;;5071504;28;20032;-48
2024/04/01 09:27:32;;;;;;;9.57;5.37;;;10.20;99.90;;;;;;5071528;28;20029;-52
2024/04/01 09:29:58;;;;;;;19.10;9.93;;;10.20;99.90;;;;;;5071471;28;20028;-48
2024/04/01 09:32:24;;;;;;;9.53;5.07;;;10.20;99.90;;;;;;5071849;28;20037;-50
2024/04/01 09:34:56;;;;;;;9.90;5.10;;;10.20;99.90;;;;;;5071453;28;20724;-50
2024/04/01 09:37:22;;;;;;;8.53;4.90;;;10.30;99.90;;;;;;5071306;28;20036;-48
2024/04/01 09:39:48;;;;;;;6.90;5.00;;;10.20;99.90;;;;;;5071264;28;20039;-48
2024/04/01 09:42:14;;;;;;;7.30;4.90;;;10.20;99.90;;;;;;5071397;28;20033;-49
2024/04/01 09:44:41;;;;;;;7.00;4.80;;;10.10;99.90;;;;;;5071424;28;20060;-51
2024/04/01 09:47:07;;;;;;;6.07;4.77;;;10.10;99.90;;;;;;5071137;28;20036;-49
2024/04/01 09:49:34;;;;;;;6.83;4.80;;;10.10;99.90;;;;;;5071523;28;20047;-49
2024/04/01 09:52:00;;;;;;;8.50;5.67;;;10.00;99.90;;;;;;5071460;28;20064;-52
2024/04/01 09:54:26;;;;;;;9.30;6.17;;;10.00;99.90;;;;;;5071428;28;20037;-49
2024/04/01 09:57:07;;;;;;;8.33;5.93;;;10.00;99.90;;;;;;5071182;28;20094;-50
2024/04/01 09:59:54;;;;;;;7.57;5.20;;;10.10;99.90;;;;;;5071201;28;20028;-50
2024/04/01 10:02:50;;;;;;;7.83;5.87;;;10.10;99.90;;;;;;5071661;28;20032;-54
2024/04/01 10:05:44;;;;;;;7.30;5.53;;;10.20;99.90;;;;;;5074935;28;20049;-53
2024/04/01 10:08:33;;;;;;;8.20;5.90;;;10.20;99.90;;;;;;5074951;28;20025;-50
2024/04/01 10:11:22;;;;;;;9.73;6.43;;;10.20;99.90;;;;;;5074869;28;20020;-51
2024/04/01 10:14:09;;;;;;;9.50;6.70;;;10.30;99.90;;;;;;5074849;28;20039;-52
2024/04/01 10:17:12;;;;;;;10.00;7.30;;;10.30;99.90;;;;;;5074485;28;20121;-49
2024/04/01 10:20:13;;;;;;;10.97;7.50;;;10.30;99.90;;;;;;5074593;28;20075;-50
2024/04/01 10:23:11;;;;;;;11.10;8.17;;;10.30;99.90;;;;;;5056611;28;20067;-52
2024/04/01 10:25:54;;;;;;;11.68;8.73;;;10.30;99.90;;;;;;5074466;28;20082;-48
2024/04/01 10:28:33;;;;;;;14.03;9.00;;;10.40;99.90;;;;;;5074652;28;20111;-51
2024/04/01 10:31:29;;;;;;;15.00;9.85;;;10.50;99.90;;;;;;5074387;28;20028;-52
2024/04/01 10:34:06;;;;;;;13.83;9.70;;;10.60;99.90;;;;;;5056494;28;20040;-51
2024/04/01 10:37:02;;;;;;;14.20;9.07;;;10.70;99.90;;;;;;5056377;28;20066;-52
2024/04/01 10:39:44;;;;;;;14.20;9.47;;;10.80;99.90;;;;;;5074286;28;20028;-53
2024/04/01 10:42:41;;;;;;;13.80;9.80;;;10.80;99.90;;;;;;5074356;28;20442;-51
2024/04/01 10:45:09;;;;;;;13.00;9.33;;;10.80;99.90;;;;;;5074633;28;20068;-47
2024/04/01 10:48:12;;;;;;;15.30;10.10;;;10.80;99.90;;;;;;5074186;28;20033;-48
2024/04/01 10:51:01;;;;;;;14.67;10.03;;;10.70;99.90;;;;;;5039464;28;20020;-53
2024/04/01 10:53:56;;;;;;;13.43;9.50;;;10.70;99.90;;;;;;5056218;28;20388;-48
2024/04/01 10:56:45;;;;;;;13.80;10.07;;;10.70;99.90;;;;;;5064663;28;20048;-51
2024/04/01 10:59:26;;;;;;;15.50;9.67;;;10.80;99.90;;;;;;5056057;28;20064;-52
2024/04/01 11:02:29;;;;;;;15.23;10.37;;;10.80;99.90;;;;;;5073871;28;20037;-51
2024/04/01 11:05:29;;;;;;;13.60;9.73;;;10.90;99.90;;;;;;5073913;28;20525;-51
2024/04/01 11:08:07;;;;;;;14.73;10.27;;;11.10;99.90;;;;;;5073873;28;20032;-51
2024/04/01 11:10:42;;;;;;;15.30;9.65;;;11.10;99.90;;;;;;5073792;28;20028;-51
2024/04/01 11:13:18;;;;;;;14.57;10.47;;;11.10;99.90;;;;;;5073751;28;20039;-49
2024/04/01 11:15:45;;;;;;;15.00;10.30;;;11.20;99.90;;;;;;5055568;28;20409;-52
2024/04/01 11:18:32;;;;;;;16.47;11.23;;;11.20;99.90;;;;;;5073602;28;20026;-49
2024/04/01 11:21:21;;;;;;;17.27;12.17;;;11.30;99.90;;;;;;5073918;28;20020;-51
2024/04/01 11:24:02;;;;;;;;;;;11.40;99.90;;;;;;5073944;28;20032;-49
2024/04/01 11:26:37;;;;;;;15.53;10.57;;;11.50;99.90;;;;;;5073146;28;19909;-48
2024/04/01 11:29:27;;;;;;;14.17;10.20;;;11.70;99.90;;;;;;5073281;28;20032;-51
2024/04/01 11:32:00;;;;;;;13.13;9.77;;;11.90;99.90;;;;;;5073314;28;20032;-52
2024/04/01 11:34:55;;;;;;;13.67;9.77;;;11.80;99.90;;;;;;5073157;28;20111;-50
2024/04/01 11:37:43;;;;;;;15.07;10.40;;;11.70;99.90;;;;;;5073084;28;20146;-50
2024/04/01 11:40:12;;;;;;;15.07;10.53;;;11.70;99.90;;;;;;5073208;28;20036;-48
2024/04/01 11:42:42;;;;;;;16.40;10.50;;;11.70;99.90;;;;;;5072989;28;20450;-48
2024/04/01 11:45:10;;;;;;;14.00;9.63;;;11.80;99.90;;;;;;5073061;28;20178;-49
2024/04/01 11:47:40;;;;;;;12.10;9.23;;;11.80;99.90;;;;;;5072977;28;20025;-48
2024/04/01 11:50:19;;;;;;;14.38;10.18;;;11.90;99.90;;;;;;5072800;28;20020;-48
2024/04/01 11:53:04;;;;;;;;;;;11.90;99.90;;;;;;5073508;28;20055;-52
2024/04/01 11:55:30;;;;;;;13.00;8.20;;;12.10;99.90;;;;;;5072740;28;20023;-47
2024/04/01 11:58:12;;;;;;;11.35;7.57;;;12.30;99.90;;;;;;5072593;28;20060;-48
2024/04/01 12:00:52;;;;;;;11.35;7.15;;;12.50;99.90;;;;;;5072585;28;20028;-48
2024/04/01 12:03:20;;;;;;;8.07;5.60;;;12.60;99.90;;;;;;5072952;28;20602;-48
2024/04/01 12:05:53;;;;;;;6.57;4.45;;;12.70;99.90;;;;;;5072375;28;20024;-47
2024/04/01 12:08:21;;;;;;;8.18;4.35;;;12.80;99.90;;;;;;5072729;28;20028;-47
2024/04/01 12:10:48;;;;;;;4.78;4.00;;;12.80;99.90;;;;;;5038013;28;20029;-52
2024/04/01 12:13:16;;;;;;;5.47;3.63;;;12.70;99.90;;;;;;5072843;28;20484;-48
2024/04/01 12:15:43;;;;;;;9.03;4.40;;;12.50;99.90;;;;;;5072315;28;20386;-50
2024/04/01 12:18:11;;;;;;;6.18;3.20;;;12.40;99.90;;;;;;5072441;28;20031;-47
2024/04/01 12:20:40;;;;;;;4.90;3.03;;;12.20;99.90;;;;;;5072224;28;20437;-48
2024/04/01 12:23:09;;;;;;;7.80;3.40;;;12.10;99.90;;;;;;5072288;28;20039;-49
2024/04/01 12:25:35;;;;;;;3.80;2.40;;;11.90;99.90;;;;;;5071840;28;20032;-53
2024/04/01 12:28:08;;;;;;;8.43;3.50;;;11.90;99.90;;;;;;5072329;28;20424;-48
2024/04/01 12:30:37;;;;;;;10.27;3.00;;;11.90;99.90;;;;;;5072097;28;20078;-51
2024/04/01 12:33:05;;;;;;;4.33;2.60;;;11.80;99.90;;;;;;5054365;28;20070;-51
2024/04/01 12:35:36;;;;;;;6.03;2.57;;;11.90;99.90;;;;;;5071905;28;20037;-53
2024/04/01 12:38:05;;;;;;;6.17;2.63;;;11.90;99.90;;;;;;5072001;28;20032;-51
2024/04/01 12:40:51;;;;;;;6.38;2.88;;;11.90;99.90;;;;;;5071932;28;20044;-51
2024/04/01 12:43:20;;;;;;;3.53;2.40;;;11.90;99.90;;;;;;5054190;28;20118;-52
2024/04/01 12:45:46;;;;;;;5.28;2.35;;;11.90;99.90;;;;;;5071832;28;20385;-53
2024/04/01 12:48:14;;;;;;;5.40;2.00;;;11.90;99.90;;;;;;5072010;28;20454;-54
2024/04/01 12:50:50;;;;;;;6.13;2.23;;;11.90;99.90;;;;;;5071862;28;20064;-51
2024/04/01 12:53:40;;;;;;;7.50;2.60;;;11.90;99.90;;;;;;5071937;28;20548;-52
2024/04/01 12:56:20;;;;;;;6.87;2.10;;;11.90;99.90;;;;;;5071589;28;20044;-51
2024/04/01 12:59:10;;;;;;;5.33;1.80;;;11.90;99.90;;;;;;5072299;28;20040;-52
2024/04/01 13:02:04;;;;;;;4.53;1.90;;;11.90;99.90;;;;;;5053886;28;20025;-51
2024/04/01 13:04:59;;;;;;;8.50;3.83;;;11.90;99.90;;;;;;5071912;28;20089;-50